createdAt,value
2018-11-22T12:17:16.761Z,70.63
2018-11-22T12:19:46.700Z,66.80
2018-11-22T12:22:17.651Z,65.57
2018-11-22T12:24:48.554Z,67.10
2018-11-22T12:27:18.697Z,64.17
2018-11-22T12:29:50.805Z,59.80
2018-11-22T12:32:35.107Z,63.50
2018-11-22T12:35:12.720Z,60.83
2018-11-22T12:37:46.293Z,58.43
2018-11-22T12:40:19.150Z,61.43
2018-11-22T12:42:50.729Z,62.43
2018-11-22T12:45:23.390Z,54.07
2018-11-22T12:47:56.976Z,56.07
2018-11-22T12:50:32.583Z,53.93
2018-11-22T12:53:06.983Z,61.33
2018-11-22T12:55:39.300Z,56.43
2018-11-22T12:58:11.920Z,59.63
2018-11-22T13:00:44.068Z,67.17
2018-11-22T13:03:14.458Z,62.43
2018-11-22T13:05:45.424Z,59.60
2018-11-22T13:08:18.778Z,64.57
2018-11-22T13:10:50.054Z,69.70
2018-11-22T13:13:22.901Z,70.30
2018-11-22T13:15:57.014Z,59.27
2018-11-22T13:18:27.888Z,65.70
2018-11-22T13:21:02.959Z,59.23
2018-11-22T13:23:36.041Z,62.87
2018-11-22T13:26:12.054Z,64.33
2018-11-22T13:28:44.430Z,75.87
2018-11-22T13:31:15.247Z,62.20
2018-11-22T13:33:46.732Z,55.00
2018-11-22T13:36:19.133Z,66.63
2018-11-22T13:38:50.143Z,62.40
2018-11-22T13:41:21.176Z,63.87
2018-11-22T13:43:57.992Z,68.57
2018-11-22T13:46:33.628Z,67.93
2018-11-22T13:49:10.659Z,76.47
2018-11-22T13:51:41.275Z,76.60
2018-11-22T13:54:11.782Z,71.30
2018-11-22T13:56:42.144Z,75.50
2018-11-22T13:59:13.432Z,79.73
2018-11-22T14:01:46.228Z,77.03
2018-11-22T14:04:17.107Z,89.03
2018-11-22T14:06:48.568Z,70.93
2018-11-22T14:09:19.231Z,78.73
2018-11-22T14:11:49.126Z,81.07
2018-11-22T14:14:20.259Z,73.57
2018-11-22T14:16:51.170Z,76.03
2018-11-22T14:19:21.746Z,78.63
2018-11-22T14:21:53.339Z,78.50
2018-11-22T14:24:23.584Z,86.87
2018-11-22T14:26:55.462Z,78.20
2018-11-22T14:29:28.238Z,73.83
2018-11-22T14:32:01.570Z,77.17
2018-11-22T14:34:35.607Z,79.57
2018-11-22T14:37:09.227Z,74.83
2018-11-22T14:39:43.159Z,79.37
2018-11-22T14:42:13.566Z,80.10
2018-11-22T14:44:43.631Z,82.80
2018-11-22T14:47:13.814Z,89.43
2018-11-22T14:49:44.506Z,72.60
2018-11-22T14:52:15.892Z,73.53
2018-11-22T14:54:47.611Z,70.73
2018-11-22T14:57:20.091Z,72.23
2018-11-22T14:59:52.675Z,70.50
2018-11-22T15:02:24.593Z,69.30
2018-11-22T15:04:58.314Z,86.00
2018-11-22T15:07:28.909Z,73.93
2018-11-22T15:10:00.045Z,86.73
2018-11-22T15:12:31.249Z,87.03
2018-11-22T15:15:03.892Z,81.77
2018-11-22T15:17:35.319Z,81.70
2018-11-22T15:20:08.751Z,87.50
2018-11-22T15:22:41.157Z,79.90
2018-11-22T15:25:15.150Z,82.93
2018-11-22T15:27:47.564Z,84.90
2018-11-22T15:30:20.600Z,80.47
2018-11-22T15:32:54.264Z,85.57
2018-11-22T15:35:29.756Z,82.83
2018-11-22T15:38:01.361Z,87.17
2018-11-22T15:40:34.054Z,74.03
2018-11-22T15:43:06.355Z,89.93
2018-11-22T15:45:38.369Z,88.33
2018-11-22T15:48:12.231Z,89.00
2018-11-22T15:50:43.295Z,82.17
2018-11-22T15:53:14.743Z,85.77
2018-11-22T15:55:45.304Z,87.10
2018-11-22T15:58:15.790Z,88.07
2018-11-22T16:00:51.107Z,87.03
2018-11-22T16:03:22.869Z,91.17
2018-11-22T16:05:53.394Z,93.50
2018-11-22T16:08:27.276Z,86.37
2018-11-22T16:11:00.181Z,90.97
2018-11-22T16:13:33.322Z,92.03
2018-11-22T16:16:04.814Z,92.40
2018-11-22T16:18:36.832Z,91.03
2018-11-22T16:21:06.930Z,89.80
2018-11-22T16:23:36.924Z,97.17
2018-11-22T16:26:06.687Z,89.53
2018-11-22T16:28:38.137Z,92.17
2018-11-22T16:31:09.684Z,87.10
2018-11-22T16:33:42.548Z,99.60
2018-11-22T16:36:13.060Z,82.27
2018-11-22T16:38:44.956Z,91.90
2018-11-22T16:41:15.471Z,88.03
2018-11-22T16:43:45.542Z,91.33
2018-11-22T16:46:16.338Z,92.03
2018-11-22T16:48:47.089Z,88.33
2018-11-22T16:51:19.607Z,80.43
2018-11-22T16:53:53.343Z,92.40
2018-11-22T16:56:24.415Z,87.90
2018-11-22T16:58:56.208Z,83.03
2018-11-22T17:01:27.896Z,79.90
2018-11-22T17:03:59.682Z,83.63
2018-11-22T17:06:33.495Z,109.33
2018-11-22T17:09:05.665Z,81.37
2018-11-22T17:11:38.670Z,90.70
2018-11-22T17:14:11.136Z,89.87
2018-11-22T17:16:44.216Z,78.10
2018-11-22T17:19:15.287Z,78.37
2018-11-22T17:21:48.222Z,78.33
2018-11-22T17:24:20.235Z,83.20
2018-11-22T17:26:52.667Z,72.43
2018-11-22T17:29:25.150Z,74.17
2018-11-22T17:31:55.427Z,76.73
2018-11-22T17:34:25.029Z,73.63
2018-11-22T17:36:58.217Z,73.93
2018-11-22T17:39:31.577Z,65.57
2018-11-22T17:42:02.189Z,67.63
2018-11-22T17:44:32.237Z,66.20
2018-11-22T17:47:02.692Z,66.60
2018-11-22T17:49:35.327Z,68.37
2018-11-22T17:52:10.649Z,68.80
2018-11-22T17:54:42.572Z,72.53
2018-11-22T17:57:14.975Z,71.03
2018-11-22T17:59:48.534Z,68.10
2018-11-22T18:02:19.525Z,71.90
2018-11-22T18:04:51.463Z,69.73
2018-11-22T18:07:24.406Z,65.23
2018-11-22T18:09:57.359Z,66.37
2018-11-22T18:12:28.235Z,72.30
2018-11-22T18:15:04.399Z,66.20
2018-11-22T18:17:35.192Z,71.73
2018-11-22T18:20:10.242Z,68.43
2018-11-22T18:22:42.686Z,74.40
2018-11-22T18:25:14.845Z,75.27
2018-11-22T18:27:44.512Z,62.20
2018-11-22T18:30:17.498Z,71.40
2018-11-22T18:32:49.899Z,67.83
2018-11-22T18:35:21.348Z,61.63
2018-11-22T18:37:53.207Z,62.70
2018-11-22T18:40:26.605Z,61.53
2018-11-22T18:42:59.099Z,64.50
2018-11-22T18:45:34.506Z,59.43
2018-11-22T18:48:08.765Z,52.30
2018-11-22T18:50:40.443Z,59.67
2018-11-22T18:53:13.388Z,51.93
2018-11-22T18:55:49.971Z,53.53
2018-11-22T18:58:25.389Z,56.63
2018-11-22T19:00:55.355Z,59.63
2018-11-22T19:03:27.762Z,58.00
2018-11-22T19:06:01.212Z,55.00
2018-11-22T19:08:34.199Z,58.47
2018-11-22T19:11:07.236Z,58.30
2018-11-22T19:13:40.191Z,54.90
2018-11-22T19:16:13.808Z,52.67
2018-11-22T19:18:45.937Z,60.60
2018-11-22T19:21:17.834Z,63.90
2018-11-22T19:23:49.647Z,63.30
2018-11-22T19:26:22.641Z,62.23
2018-11-22T19:28:54.178Z,62.73
2018-11-22T19:31:24.000Z,56.60
2018-11-22T19:33:54.503Z,60.63
2018-11-22T19:36:26.276Z,61.87
2018-11-22T19:38:59.770Z,65.10
2018-11-22T19:41:35.553Z,69.53
2018-11-22T19:44:06.725Z,66.90
2018-11-22T19:46:38.240Z,56.47
2018-11-22T19:49:10.404Z,61.37
2018-11-22T19:51:40.866Z,64.47
2018-11-22T19:54:13.622Z,57.77
2018-11-22T19:56:45.800Z,64.00
2018-11-22T19:59:15.715Z,56.20
2018-11-22T20:01:45.772Z,61.50
2018-11-22T20:04:16.266Z,57.17
2018-11-22T20:06:49.825Z,52.20
2018-11-22T20:09:22.287Z,58.87
2018-11-22T20:11:54.590Z,47.33
2018-11-22T20:14:26.882Z,46.80
2018-11-22T20:16:58.974Z,45.23
2018-11-22T20:19:36.317Z,41.50
2018-11-22T20:22:06.506Z,48.30
2018-11-22T20:24:40.042Z,52.63
2018-11-22T20:27:13.995Z,44.43
2018-11-22T20:29:46.051Z,44.30
2018-11-22T20:32:16.740Z,41.20
2018-11-22T20:34:47.118Z,40.10
2018-11-22T20:37:16.837Z,43.00
2018-11-22T20:39:47.668Z,37.63
2018-11-22T20:42:17.763Z,38.47
2018-11-22T20:44:47.913Z,38.03
2018-11-22T20:47:18.405Z,40.30
2018-11-22T20:49:48.646Z,33.47
2018-11-22T20:52:19.518Z,42.07
2018-11-22T20:54:49.482Z,40.43
2018-11-22T20:57:20.140Z,33.70
2018-11-22T20:59:49.892Z,35.83
2018-11-22T21:02:20.776Z,36.27
2018-11-22T21:04:52.023Z,33.80
2018-11-22T21:07:24.007Z,36.10
2018-11-22T21:09:55.186Z,32.60
2018-11-22T21:12:27.130Z,34.90
2018-11-22T21:14:58.147Z,31.03
2018-11-22T21:17:28.189Z,30.37
2018-11-22T21:19:59.651Z,27.83
2018-11-22T21:22:29.234Z,33.10
2018-11-22T21:24:59.230Z,23.33
2018-11-22T21:27:29.986Z,27.73
2018-11-22T21:30:03.993Z,28.90
2018-11-22T21:32:34.785Z,24.97
2018-11-22T21:35:07.433Z,20.70
2018-11-22T21:37:37.392Z,22.87
2018-11-22T21:40:08.164Z,27.97
2018-11-22T21:42:42.703Z,21.30
2018-11-22T21:45:20.778Z,22.70
2018-11-22T21:47:51.699Z,22.53
2018-11-22T21:50:26.881Z,21.67
2018-11-22T21:52:58.792Z,23.10
2018-11-22T21:55:29.961Z,20.00
2018-11-22T21:58:03.153Z,18.30
2018-11-22T22:00:38.033Z,19.87
2018-11-22T22:03:11.784Z,20.03
2018-11-22T22:05:42.770Z,19.90
2018-11-22T22:08:13.643Z,20.40
2018-11-22T22:10:45.137Z,18.90
2018-11-22T22:13:15.330Z,21.73
2018-11-22T22:15:45.659Z,22.30
2018-11-22T22:18:21.121Z,21.57
2018-11-22T22:20:51.427Z,19.07
2018-11-22T22:23:27.150Z,22.20
2018-11-22T22:25:59.322Z,19.50
2018-11-22T22:28:30.757Z,18.03
2018-11-22T22:31:04.009Z,19.93
2018-11-22T22:33:36.562Z,20.73
2018-11-22T22:36:06.770Z,20.40
2018-11-22T22:38:37.803Z,22.20
2018-11-22T22:41:07.434Z,19.03
2018-11-22T22:43:38.362Z,24.27
2018-11-22T22:46:13.139Z,23.33
2018-11-22T22:48:44.529Z,23.97
2018-11-22T22:51:16.343Z,23.90
2018-11-22T22:53:48.411Z,25.80
2018-11-22T22:56:20.449Z,24.40
2018-11-22T22:58:51.612Z,22.23
2018-11-22T23:01:21.391Z,21.83
2018-11-22T23:03:52.302Z,26.87
2018-11-22T23:06:22.518Z,22.57
2018-11-22T23:08:52.838Z,25.90
2018-11-22T23:11:29.809Z,27.20
2018-11-22T23:14:02.711Z,27.30
2018-11-22T23:16:32.816Z,28.70
2018-11-22T23:19:04.409Z,26.00
2018-11-22T23:21:36.959Z,25.47
2018-11-22T23:24:07.523Z,27.73
2018-11-22T23:26:38.646Z,25.33
2018-11-22T23:29:10.812Z,26.00
2018-11-22T23:31:42.329Z,27.27
2018-11-22T23:34:16.591Z,33.90
2018-11-22T23:36:46.621Z,28.00
2018-11-22T23:39:18.504Z,29.93
2018-11-22T23:41:50.391Z,28.30
2018-11-22T23:44:21.746Z,32.27
2018-11-22T23:46:52.687Z,27.80
2018-11-22T23:49:27.884Z,36.20
2018-11-22T23:51:57.827Z,33.30
2018-11-22T23:54:28.733Z,29.90
2018-11-22T23:56:59.044Z,29.57
2018-11-22T23:59:29.658Z,34.80
